Piper, Iowa
Current Conditions -  °F | °C
As of 6:55 AM on Thursday 23 Oct 2014 (Local Time) from KCIN Reporting Station
Haze Haze  
Wind Chill: 57°   Ceiling: 500
Heat Index: 57°   Visibility: 5mi
Dew Point: 57°   Wind: 6mph
Humidity: 100%   Direction: 220°SW
Pressure: 30.01"   Gusts: NA
Location:  42.385°N, 94.6304°W
Report Text: KCIN 231155Z AUTO 22005KT 5SM BR BKN005 BKN011 OVC031 14/14 A3001 RMK AO2
Loading
Personal Weather Stations






























Interactive Weather Map
Tropical Storm Tracking
New forecast layout! Learn more

10-Day Weather Forecast

Advertisements
Track Severe Weather on mobile